createdAt,value
2015-12-23T00:00:36.153Z,1014.85
2015-12-23T00:01:36.140Z,1014.87
2015-12-23T00:02:36.097Z,1014.91
2015-12-23T00:03:36.100Z,1014.98
2015-12-23T00:04:36.039Z,1014.95
2015-12-23T00:05:36.011Z,1014.96
2015-12-23T00:06:35.983Z,1015.04
2015-12-23T00:07:35.954Z,1014.98
2015-12-23T00:08:35.925Z,1015.01
2015-12-23T00:09:35.912Z,1014.94
2015-12-23T00:10:35.869Z,1015.02
2015-12-23T00:11:35.839Z,1015
2015-12-23T00:12:35.811Z,1014.97
2015-12-23T00:13:35.783Z,1015
2015-12-23T00:14:35.755Z,1014.96
2015-12-23T00:15:35.741Z,1014.92
2015-12-23T00:16:35.697Z,1014.97
2015-12-23T00:17:35.669Z,1014.95
2015-12-23T00:18:35.640Z,1014.94
2015-12-23T00:19:35.627Z,1014.91
2015-12-23T00:20:35.583Z,1014.96
2015-12-23T00:21:35.555Z,1014.88
2015-12-23T00:22:35.527Z,1014.84
2015-12-23T00:23:35.513Z,1014.86
2015-12-23T00:24:35.485Z,1014.9
2015-12-23T00:25:35.455Z,1014.93
2015-12-23T00:26:35.413Z,1014.85
2015-12-23T00:27:35.384Z,1014.85
2015-12-23T00:28:35.355Z,1014.82
2015-12-23T00:29:35.342Z,1014.73
2015-12-23T00:30:35.298Z,1014.83
2015-12-23T00:31:35.269Z,1014.76
2015-12-23T00:32:35.257Z,1014.75
2015-12-23T00:33:35.212Z,1014.73
2015-12-23T00:34:35.230Z,1014.71
2015-12-23T00:35:35.202Z,1014.73
2015-12-23T00:36:35.143Z,1014.74
2015-12-23T00:37:35.099Z,1014.75
2015-12-23T00:38:35.071Z,1014.78
2015-12-23T00:39:35.041Z,1014.82
2015-12-23T00:40:35.028Z,1014.82
2015-12-23T00:41:34.985Z,1014.77
2015-12-23T00:42:34.971Z,1014.8
2015-12-23T00:43:34.959Z,1014.75
2015-12-23T00:44:34.899Z,1014.7
2015-12-23T00:45:34.870Z,1014.65
2015-12-23T00:46:34.839Z,1014.7
2015-12-23T00:47:34.810Z,1014.66
2015-12-23T00:48:34.782Z,1014.62
2015-12-23T00:49:34.754Z,1014.62
2015-12-23T00:50:34.740Z,1014.6
2015-12-23T00:51:34.696Z,1014.59
2015-12-23T00:52:34.668Z,1014.65
2015-12-23T00:53:34.640Z,1014.65
2015-12-23T00:54:34.611Z,1014.62
2015-12-23T00:55:34.603Z,1014.7
2015-12-23T00:56:34.554Z,1014.67
2015-12-23T00:57:34.541Z,1014.61
2015-12-23T00:58:34.498Z,1014.6
2015-12-23T00:59:34.468Z,1014.59
2015-12-23T01:00:34.502Z,1014.59
2015-12-23T01:01:34.458Z,1014.6
2015-12-23T01:02:34.633Z,1014.63
2015-12-23T01:03:34.447Z,1014.59
2015-12-23T01:04:34.575Z,1014.61
2015-12-23T01:05:34.625Z,1014.58
2015-12-23T01:06:34.315Z,1014.57
2015-12-23T01:07:34.350Z,1014.59
2015-12-23T01:08:34.555Z,1014.53
2015-12-23T01:09:34.715Z,1014.58
2015-12-23T01:10:34.296Z,1014.5
2015-12-23T01:11:34.236Z,1014.49
2015-12-23T01:12:34.192Z,1014.51
2015-12-23T01:13:34.179Z,1014.51
2015-12-23T01:14:34.088Z,1014.47
2015-12-23T01:15:34.137Z,1014.47
2015-12-23T01:16:34.125Z,1014.44
2015-12-23T01:17:34.080Z,1014.46
2015-12-23T01:18:34.145Z,1014.45
2015-12-23T01:19:34.008Z,1014.41
2015-12-23T01:20:33.916Z,1014.48
2015-12-23T01:21:33.950Z,1014.39
2015-12-23T01:22:33.939Z,1014.45
2015-12-23T01:23:33.894Z,1014.47
2015-12-23T01:24:33.819Z,1014.48
2015-12-23T01:25:33.789Z,1014.48
2015-12-23T01:26:33.809Z,1014.53
2015-12-23T01:27:33.780Z,1014.49
2015-12-23T01:28:33.751Z,1014.49
2015-12-23T01:29:33.722Z,1014.48
2015-12-23T01:30:33.631Z,1014.46
2015-12-23T01:31:33.681Z,1014.43
2015-12-23T01:32:33.652Z,1014.37
2015-12-23T01:33:34.046Z,1014.37
2015-12-23T01:34:33.846Z,1014.38
2015-12-23T01:35:33.677Z,1014.34
2015-12-23T01:36:33.617Z,1014.42
2015-12-23T01:37:33.461Z,1014.38
2015-12-23T01:38:33.400Z,1014.45
2015-12-23T01:39:33.529Z,1014.39
2015-12-23T01:40:33.375Z,1014.39
2015-12-23T01:41:33.315Z,1014.29
2015-12-23T01:42:33.303Z,1014.39
2015-12-23T01:43:33.274Z,1014.37
2015-12-23T01:44:33.246Z,1014.32
2015-12-23T01:45:33.436Z,1014.23
2015-12-23T01:46:33.172Z,1014.35
2015-12-23T01:47:33.160Z,1014.33
2015-12-23T01:48:33.085Z,1014.34
2015-12-23T01:49:33.040Z,1014.31
2015-12-23T01:50:33.012Z,1014.26
2015-12-23T01:51:32.983Z,1014.31
2015-12-23T01:52:32.955Z,1014.32
2015-12-23T01:53:32.926Z,1014.29
2015-12-23T01:54:32.898Z,1014.3
2015-12-23T01:55:32.869Z,1014.2
2015-12-23T01:56:32.840Z,1014.26
2015-12-23T01:57:32.812Z,1014.05
2015-12-23T01:58:32.784Z,1014.18
2015-12-23T01:59:32.755Z,1014.28
2015-12-23T02:00:32.726Z,1014.26
2015-12-23T02:01:32.698Z,1014.21
2015-12-23T02:02:32.685Z,1014.21
2015-12-23T02:03:32.641Z,1014.21
2015-12-23T02:04:32.612Z,1014.08
2015-12-23T02:05:32.632Z,1014.19
2015-12-23T02:06:32.665Z,1014.08
2015-12-23T02:07:32.855Z,1014.04
2015-12-23T02:08:32.624Z,1014.04
2015-12-23T02:09:32.579Z,1014.04
2015-12-23T02:10:32.488Z,1013.99
2015-12-23T02:11:32.429Z,1014
2015-12-23T02:12:32.384Z,1014.06
2015-12-23T02:13:32.357Z,1014.03
2015-12-23T02:14:32.329Z,1013.95
2015-12-23T02:15:32.299Z,1013.93
2015-12-23T02:16:32.271Z,1013.99
2015-12-23T02:17:32.257Z,1013.96
2015-12-23T02:18:32.214Z,1013.94
2015-12-23T02:19:32.185Z,1013.99
2015-12-23T02:20:32.157Z,1014
2015-12-23T02:21:32.128Z,1014.03
2015-12-23T02:22:32.100Z,1013.95
2015-12-23T02:23:32.084Z,1014.04
2015-12-23T02:24:32.040Z,1014.02
2015-12-23T02:25:32.026Z,1013.97
2015-12-23T02:26:31.984Z,1013.97
2015-12-23T02:27:31.954Z,1013.93
2015-12-23T02:28:31.973Z,1013.92
2015-12-23T02:29:31.959Z,1013.86
2015-12-23T02:30:31.884Z,1013.9
2015-12-23T02:31:31.841Z,1013.77
2015-12-23T02:32:31.812Z,1013.78
2015-12-23T02:33:31.799Z,1013.78
2015-12-23T02:34:31.756Z,1013.74
2015-12-23T02:35:31.726Z,1013.73
2015-12-23T02:36:31.698Z,1013.75
2015-12-23T02:37:31.670Z,1013.77
2015-12-23T02:38:31.657Z,1013.77
2015-12-23T02:39:31.612Z,1013.73
2015-12-23T02:40:31.584Z,1013.73
2015-12-23T02:41:31.555Z,1013.66
2015-12-23T02:42:31.527Z,1013.62
2015-12-23T02:43:31.499Z,1013.57
2015-12-23T02:44:31.470Z,1013.63
2015-12-23T02:45:31.441Z,1013.67
2015-12-23T02:46:31.413Z,1013.65
2015-12-23T02:47:31.384Z,1013.68
2015-12-23T02:48:31.355Z,1013.64
2015-12-23T02:49:31.327Z,1013.6
2015-12-23T02:50:31.300Z,1013.6
2015-12-23T02:51:31.473Z,1013.58
2015-12-23T02:52:31.258Z,1013.55
2015-12-23T02:53:31.214Z,1013.54
2015-12-23T02:54:31.185Z,1013.54
2015-12-23T02:55:31.188Z,1013.49
2015-12-23T02:56:31.128Z,1013.46
2015-12-23T02:57:31.099Z,1013.43
2015-12-23T02:58:31.072Z,1013.44
2015-12-23T02:59:31.042Z,1013.52
2015-12-23T03:00:31.014Z,1013.54
2015-12-23T03:01:30.986Z,1013.53
2015-12-23T03:02:30.961Z,1013.5
2015-12-23T03:03:30.933Z,1013.54
2015-12-23T03:04:30.905Z,1013.56
2015-12-23T03:05:30.877Z,1013.58
2015-12-23T03:06:30.847Z,1013.53
2015-12-23T03:07:30.816Z,1013.37
2015-12-23T03:08:30.789Z,1013.38
2015-12-23T03:09:30.760Z,1013.42
2015-12-23T03:10:30.730Z,1013.41
2015-12-23T03:11:30.702Z,1013.41
2015-12-23T03:12:30.674Z,1013.41
2015-12-23T03:13:30.645Z,1013.36
2015-12-23T03:14:30.616Z,1013.39
2015-12-23T03:15:30.588Z,1013.38
2015-12-23T03:16:30.544Z,1013.36
2015-12-23T03:17:30.532Z,1013.36
2015-12-23T03:18:30.503Z,1013.37
2015-12-23T03:19:30.474Z,1013.33
2015-12-23T03:20:30.445Z,1013.34
2015-12-23T03:21:30.418Z,1013.3
2015-12-23T03:22:30.483Z,1013.27
2015-12-23T03:23:30.376Z,1013.31
2015-12-23T03:24:30.332Z,1013.27
2015-12-23T03:25:30.304Z,1013.32
2015-12-23T03:26:30.274Z,1013.25
2015-12-23T03:27:30.246Z,1013.28
2015-12-23T03:28:30.218Z,1013.2
2015-12-23T03:29:30.189Z,1013.22
2015-12-23T03:30:30.160Z,1013.22
2015-12-23T03:31:30.132Z,1013.2
2015-12-23T03:32:30.104Z,1013.27
2015-12-23T03:33:30.075Z,1013.24
2015-12-23T03:34:30.046Z,1013.27
2015-12-23T03:35:30.018Z,1013.36
2015-12-23T03:36:29.990Z,1013.32
2015-12-23T03:37:29.961Z,1013.38
2015-12-23T03:38:29.932Z,1013.31
2015-12-23T03:39:29.904Z,1013.34
2015-12-23T03:40:29.892Z,1013.36
2015-12-23T03:41:29.831Z,1013.26
2015-12-23T03:42:29.818Z,1013.28
2015-12-23T03:43:29.790Z,1013.26
2015-12-23T03:44:29.762Z,1013.27
2015-12-23T03:45:29.733Z,1013.32
2015-12-23T03:46:29.690Z,1013.29
2015-12-23T03:47:29.661Z,1013.23
2015-12-23T03:48:29.648Z,1013.28
2015-12-23T03:49:29.620Z,1013.29
2015-12-23T03:50:29.590Z,1013.28
2015-12-23T03:51:29.562Z,1013.29
2015-12-23T03:52:29.534Z,1013.22
2015-12-23T03:53:29.506Z,1013.24
2015-12-23T03:54:29.477Z,1013.29
2015-12-23T03:55:29.433Z,1013.27
2015-12-23T03:56:29.420Z,1013.22
2015-12-23T03:57:29.376Z,1013.18
2015-12-23T03:58:29.360Z,1013.26
2015-12-23T03:59:29.316Z,1013.27
2015-12-23T04:00:29.303Z,1013.24
2015-12-23T04:01:29.275Z,1013.28
2015-12-23T04:02:29.245Z,1013.21
2015-12-23T04:03:29.217Z,1013.24
2015-12-23T04:04:29.173Z,1013.23
2015-12-23T04:05:29.239Z,1013.22
2015-12-23T04:06:29.335Z,1013.24
2015-12-23T04:07:29.088Z,1013.22
2015-12-23T04:08:29.058Z,1013.2
2015-12-23T04:09:29.046Z,1013.26
2015-12-23T04:10:29.017Z,1013.27
2015-12-23T04:11:28.973Z,1013.24
2015-12-23T04:12:28.960Z,1013.32
2015-12-23T04:13:28.916Z,1013.32
2015-12-23T04:14:28.903Z,1013.27
2015-12-23T04:15:28.859Z,1013.24
2015-12-23T04:16:28.831Z,1013.26
2015-12-23T04:17:28.802Z,1013.22
2015-12-23T04:18:28.789Z,1013.24
2015-12-23T04:19:28.746Z,1013.16
2015-12-23T04:20:28.732Z,1013.14
2015-12-23T04:21:28.688Z,1013.18
2015-12-23T04:22:28.675Z,1013.23
2015-12-23T04:23:28.646Z,1013.24
2015-12-23T04:24:28.618Z,1013.19
2015-12-23T04:25:28.574Z,1013.16
2015-12-23T04:26:28.546Z,1013.22
2015-12-23T04:27:28.517Z,1013.1
2015-12-23T04:28:28.504Z,1013.12
2015-12-23T04:29:28.460Z,1013.1
2015-12-23T04:30:28.446Z,1013.12
2015-12-23T04:31:28.419Z,1013.24
2015-12-23T04:32:28.374Z,1013.27
2015-12-23T04:33:28.393Z,1013.25
2015-12-23T04:34:28.317Z,1013.22
2015-12-23T04:35:28.289Z,1013.18
2015-12-23T04:36:28.260Z,1013.15
2015-12-23T04:37:28.232Z,1013.16
2015-12-23T04:38:28.198Z,1013.29
2015-12-23T04:39:28.158Z,1013.17
2015-12-23T04:40:28.178Z,1013.16
2015-12-23T04:41:28.075Z,1013.15
2015-12-23T04:42:28.034Z,1013.17
2015-12-23T04:43:27.998Z,1013.14
2015-12-23T04:44:27.964Z,1013.16
2015-12-23T04:45:27.931Z,1013.14
2015-12-23T04:46:27.899Z,1013.15
2015-12-23T04:47:27.866Z,1013.12
2015-12-23T04:48:27.835Z,1013.15
2015-12-23T04:49:27.805Z,1013.09
2015-12-23T04:50:27.775Z,1013.11
2015-12-23T04:51:27.760Z,1013.13
2015-12-23T04:52:27.715Z,1013.11
2015-12-23T04:53:27.685Z,1013.05
2015-12-23T04:54:27.655Z,1013.13
2015-12-23T04:55:27.626Z,1013.13
2015-12-23T04:56:27.612Z,1013.15
2015-12-23T04:57:27.567Z,1013.16
2015-12-23T05:01:26.515Z,1013.26
2015-12-23T05:02:17.455Z,1013.15
2015-12-23T05:03:17.426Z,1013.2
2015-12-23T05:04:17.399Z,1013.19
2015-12-23T05:05:17.370Z,1013.24
2015-12-23T05:06:17.341Z,1013.24
2015-12-23T05:07:17.313Z,1013.3
2015-12-23T05:08:17.284Z,1013.3
2015-12-23T05:09:17.255Z,1013.26
2015-12-23T05:10:17.227Z,1013.2
2015-12-23T05:11:17.198Z,1013.23
2015-12-23T05:12:17.154Z,1013.3
2015-12-23T05:13:17.126Z,1013.38
2015-12-23T05:14:17.087Z,1013.32
2015-12-23T05:15:17.058Z,1013.28
2015-12-23T05:16:17.029Z,1013.3
2015-12-23T05:17:17.001Z,1013.37
2015-12-23T05:18:16.973Z,1013.39
2015-12-23T05:19:16.944Z,1013.37
2015-12-23T05:20:16.915Z,1013.4
2015-12-23T05:21:16.918Z,1013.38
2015-12-23T05:22:16.859Z,1013.35
2015-12-23T05:23:16.830Z,1013.4
2015-12-23T05:24:16.801Z,1013.36
2015-12-23T05:25:16.773Z,1013.3
2015-12-23T05:26:16.745Z,1013.29
2015-12-23T05:27:16.716Z,1013.34
2015-12-23T05:28:16.685Z,1013.37
2015-12-23T05:29:16.656Z,1013.36
2015-12-23T05:30:16.643Z,1013.39
2015-12-23T05:31:16.599Z,1013.32
2015-12-23T05:32:16.571Z,1013.35
2015-12-23T05:33:16.542Z,1013.27
2015-12-23T05:34:16.514Z,1013.29
2015-12-23T05:35:16.484Z,1013.23
2015-12-23T05:36:16.456Z,1013.22
2015-12-23T05:37:16.428Z,1013.27
2015-12-23T05:38:16.400Z,1013.28
2015-12-23T05:39:16.371Z,1013.28
2015-12-23T05:40:16.342Z,1013.26
2015-12-23T05:41:16.314Z,1013.3
2015-12-23T05:42:16.286Z,1013.33
2015-12-23T05:43:16.272Z,1013.36
2015-12-23T05:44:16.228Z,1013.31
2015-12-23T05:45:16.200Z,1013.26
2015-12-23T05:46:18.686Z,1013.34
2015-12-23T05:47:16.128Z,1013.38
2015-12-23T05:48:16.114Z,1013.41
2015-12-23T05:49:16.070Z,1013.49
2015-12-23T05:50:16.041Z,1013.58
2015-12-23T05:51:16.014Z,1013.59
2015-12-23T05:52:15.985Z,1013.57
2015-12-23T05:53:15.972Z,1013.57
2015-12-23T05:54:15.928Z,1013.45
2015-12-23T05:55:15.900Z,1013.53
2015-12-23T05:56:15.887Z,1013.51
2015-12-23T05:57:15.858Z,1013.48
2015-12-23T05:58:15.845Z,1013.53
2015-12-23T05:59:15.786Z,1013.54
2015-12-23T06:00:15.758Z,1013.6
2015-12-23T06:01:15.728Z,1013.49
2015-12-23T06:02:15.700Z,1013.6
2015-12-23T06:03:15.671Z,1013.67
2015-12-23T06:04:15.658Z,1013.76
2015-12-23T06:05:15.645Z,1013.84
2015-12-23T06:06:15.586Z,1013.76
2015-12-23T06:07:15.558Z,1013.74
2015-12-23T06:08:15.529Z,1013.68
2015-12-23T06:09:15.499Z,1013.73
2015-12-23T06:10:15.472Z,1013.76
2015-12-23T06:11:15.444Z,1013.7
2015-12-23T06:12:15.415Z,1013.82
2015-12-23T06:13:15.386Z,1013.81
2015-12-23T06:14:15.342Z,1013.83
2015-12-23T06:15:15.313Z,1013.89
2015-12-23T06:16:15.302Z,1013.9
2015-12-23T06:17:15.257Z,1013.97
2015-12-23T06:18:15.228Z,1014
2015-12-23T06:19:15.231Z,1013.98
2015-12-23T06:20:15.187Z,1013.95
2015-12-23T06:21:15.158Z,1013.96
2015-12-23T06:22:15.114Z,1013.95
2015-12-23T06:23:15.101Z,1014
2015-12-23T06:24:15.054Z,1013.99
2015-12-23T06:25:15.026Z,1013.97
2015-12-23T06:26:14.997Z,1013.95
2015-12-23T06:27:14.969Z,1014
2015-12-23T06:28:14.940Z,1013.99
2015-12-23T06:29:14.912Z,1014.03
2015-12-23T06:30:14.882Z,1014.03
2015-12-23T06:31:15.057Z,1014.05
2015-12-23T06:32:14.826Z,1014.07
2015-12-23T06:33:14.798Z,1014.03
2015-12-23T06:34:14.769Z,1014.04
2015-12-23T06:35:14.740Z,1014.08
2015-12-23T06:36:14.712Z,1014.04
2015-12-23T06:37:14.683Z,1014.08
2015-12-23T06:38:14.654Z,1014.09
2015-12-23T06:39:14.626Z,1014.05
2015-12-23T06:40:14.598Z,1014.07
2015-12-23T06:41:14.570Z,1014.12
2015-12-23T06:42:14.540Z,1014.03
2015-12-23T06:43:14.512Z,1014.04
2015-12-23T06:44:14.484Z,1014.02
2015-12-23T06:45:14.456Z,1014.04
2015-12-23T06:46:14.427Z,1014.1
2015-12-23T06:47:14.383Z,1014.03
2015-12-23T06:48:14.354Z,1014.01
2015-12-23T06:49:14.326Z,1014.05
2015-12-23T06:50:14.298Z,1013.99
2015-12-23T06:51:14.269Z,1013.96
2015-12-23T06:52:14.239Z,1013.96
2015-12-23T06:53:14.212Z,1013.97
2015-12-23T06:54:14.183Z,1013.86
2015-12-23T06:55:14.155Z,1013.99
2015-12-23T06:56:14.126Z,1013.99
2015-12-23T06:57:14.098Z,1014.01
2015-12-23T06:58:14.070Z,1014.03
2015-12-23T06:59:14.041Z,1014
2015-12-23T07:00:14.012Z,1014.04
2015-12-23T07:01:13.984Z,1014.01
2015-12-23T07:02:13.956Z,1014.04
2015-12-23T07:03:13.927Z,1014.08
2015-12-23T07:04:13.899Z,1014.13
2015-12-23T07:05:13.886Z,1014.08
2015-12-23T07:06:13.857Z,1014.06
2015-12-23T07:07:13.891Z,1014.07
2015-12-23T07:08:13.781Z,1014.1
2015-12-23T07:09:13.753Z,1014.11
2015-12-23T07:10:13.725Z,1014.15
2015-12-23T07:11:13.680Z,1014.17
2015-12-23T07:12:13.714Z,1014.13
2015-12-23T07:13:13.623Z,1014.18
2015-12-23T07:14:13.611Z,1014.29
2015-12-23T07:15:13.582Z,1014.22
2015-12-23T07:16:13.553Z,1014.31
2015-12-23T07:17:13.525Z,1014.29
2015-12-23T07:18:13.480Z,1014.36
2015-12-23T07:19:13.452Z,1014.39
2015-12-23T07:20:13.439Z,1014.38
2015-12-23T07:21:13.395Z,1014.43
2015-12-23T07:22:13.366Z,1014.41
2015-12-23T07:23:13.338Z,1014.35
2015-12-23T07:24:13.309Z,1014.41
2015-12-23T07:25:13.281Z,1014.39
2015-12-23T07:26:13.252Z,1014.41
2015-12-23T07:27:13.224Z,1014.33
2015-12-23T07:28:13.196Z,1014.48
2015-12-23T07:29:13.167Z,1014.55
2015-12-23T07:30:13.123Z,1014.5
2015-12-23T07:31:13.110Z,1014.51
2015-12-23T07:32:13.097Z,1014.46
2015-12-23T07:33:13.038Z,1014.41
2015-12-23T07:34:13.010Z,1014.42
2015-12-23T07:35:12.996Z,1014.44
2015-12-23T07:36:12.968Z,1014.63
2015-12-23T07:37:12.923Z,1014.71
2015-12-23T07:38:12.957Z,1014.7
2015-12-23T07:39:12.866Z,1014.7
2015-12-23T07:40:12.854Z,1014.63
2015-12-23T07:41:12.810Z,1014.67
2015-12-23T07:42:12.781Z,1014.63
2015-12-23T07:43:12.752Z,1014.63
2015-12-23T07:44:12.724Z,1014.63
2015-12-23T07:45:12.696Z,1014.57
2015-12-23T07:46:12.667Z,1014.71
2015-12-23T07:47:12.638Z,1014.8
2015-12-23T07:48:12.610Z,1014.68
2015-12-23T07:49:12.581Z,1014.7
2015-12-23T07:50:12.554Z,1014.72
2015-12-23T07:51:12.524Z,1014.72
2015-12-23T07:52:12.496Z,1014.75
2015-12-23T07:53:12.467Z,1014.75
2015-12-23T07:54:12.439Z,1014.7
2015-12-23T07:55:12.410Z,1014.77
2015-12-23T07:56:12.366Z,1014.75
2015-12-23T07:57:12.354Z,1014.72
2015-12-23T07:58:12.309Z,1014.73
2015-12-23T07:59:12.282Z,1014.77
2015-12-23T08:00:12.252Z,1014.85
2015-12-23T08:01:12.221Z,1014.83
2015-12-23T08:02:12.192Z,1014.78
2015-12-23T08:03:12.164Z,1014.78
2015-12-23T08:04:12.151Z,1014.78
2015-12-23T08:05:12.107Z,1014.82
2015-12-23T08:06:12.078Z,1014.82
2015-12-23T08:07:12.050Z,1014.9
2015-12-23T08:08:12.021Z,1014.85
2015-12-23T08:09:11.992Z,1014.87
2015-12-23T08:10:11.964Z,1014.85
2015-12-23T08:11:11.936Z,1014.82
2015-12-23T08:12:11.892Z,1014.8
2015-12-23T08:13:11.864Z,1014.81
2015-12-23T08:14:11.850Z,1014.83
2015-12-23T08:15:11.805Z,1014.75
2015-12-23T08:16:11.778Z,1014.82
2015-12-23T08:17:11.749Z,1014.82
2015-12-23T08:18:11.720Z,1014.87
2015-12-23T08:19:11.708Z,1014.91
2015-12-23T08:20:11.710Z,1014.9
2015-12-23T08:21:11.681Z,1014.95
2015-12-23T08:22:11.623Z,1015
2015-12-23T08:23:11.594Z,1014.99
2015-12-23T08:24:11.550Z,1015.02
2015-12-23T08:25:11.522Z,1015.07
2015-12-23T08:26:11.492Z,1014.97
2015-12-23T08:27:11.464Z,1015.01
2015-12-23T08:28:11.436Z,1015.05
2015-12-23T08:29:11.407Z,1015.12
2015-12-23T08:30:11.363Z,1015.11
2015-12-23T08:31:11.350Z,1015.11
2015-12-23T08:32:11.322Z,1015.13
2015-12-23T08:33:11.293Z,1015.14
2015-12-23T08:34:11.264Z,1015.09
2015-12-23T08:35:11.220Z,1015.11
2015-12-23T08:36:11.207Z,1015.19
2015-12-23T08:37:11.164Z,1015.19
2015-12-23T08:38:11.135Z,1015.13
2015-12-23T08:39:11.106Z,1015.23
2015-12-23T08:40:11.077Z,1015.25
2015-12-23T08:41:11.049Z,1015.28
2015-12-23T08:42:11.021Z,1015.25
2015-12-23T08:43:10.992Z,1015.25
2015-12-23T08:44:10.963Z,1015.24
2015-12-23T08:45:10.935Z,1015.32
2015-12-23T08:46:10.908Z,1015.3
2015-12-23T08:47:10.878Z,1015.27
2015-12-23T08:48:10.850Z,1015.34
2015-12-23T08:49:10.822Z,1015.34
2015-12-23T08:50:10.791Z,1015.35
2015-12-23T08:51:10.761Z,1015.35
2015-12-23T08:52:10.733Z,1015.35
2015-12-23T08:53:10.705Z,1015.41
2015-12-23T08:54:10.677Z,1015.4
2015-12-23T08:55:10.647Z,1015.4
2015-12-23T08:56:10.619Z,1015.4
2015-12-23T08:57:10.574Z,1015.31
2015-12-23T08:58:10.562Z,1015.37
2015-12-23T08:59:10.533Z,1015.36
2015-12-23T09:00:10.490Z,1015.23
2015-12-23T09:01:10.476Z,1015.26
2015-12-23T09:02:10.448Z,1015.3
2015-12-23T09:03:10.419Z,1015.31
2015-12-23T09:04:10.376Z,1015.38
2015-12-23T09:05:10.347Z,1015.31
2015-12-23T09:06:10.318Z,1015.42
2015-12-23T09:07:10.290Z,1015.34
2015-12-23T09:08:10.262Z,1015.4
2015-12-23T09:09:10.232Z,1015.45
2015-12-23T09:10:10.204Z,1015.53
2015-12-23T09:11:10.191Z,1015.62
2015-12-23T09:12:10.163Z,1015.58
2015-12-23T09:13:10.118Z,1015.54
2015-12-23T09:14:10.090Z,1015.56
2015-12-23T09:15:10.062Z,1015.57
2015-12-23T09:16:10.033Z,1015.65
2015-12-23T09:17:10.005Z,1015.62
2015-12-23T09:18:09.977Z,1015.59
2015-12-23T09:19:09.948Z,1015.71
2015-12-23T09:20:09.904Z,1015.67
2015-12-23T09:21:09.891Z,1015.81
2015-12-23T09:22:09.863Z,1015.86
2015-12-23T09:23:09.834Z,1015.82
2015-12-23T09:24:09.790Z,1015.84
2015-12-23T09:25:09.761Z,1015.91
2015-12-23T09:26:09.732Z,1015.88
2015-12-23T09:27:09.704Z,1016
2015-12-23T09:28:09.676Z,1015.95
2015-12-23T09:29:09.648Z,1015.94
2015-12-23T09:30:09.618Z,1015.91
2015-12-23T09:31:09.700Z,1015.99
2015-12-23T09:32:09.561Z,1016.07
2015-12-23T09:33:09.534Z,1016.02
2015-12-23T09:34:09.504Z,1016.01
2015-12-23T09:35:09.476Z,1015.98
2015-12-23T09:36:09.447Z,1016.09
2015-12-23T09:37:09.434Z,1016.11
2015-12-23T09:38:09.390Z,1016.08
2015-12-23T09:39:09.361Z,1016.11
2015-12-23T09:40:09.333Z,1016.17
2015-12-23T09:41:09.320Z,1016.13
2015-12-23T09:42:09.273Z,1016.17
2015-12-23T09:43:09.245Z,1016.15
2015-12-23T09:44:09.216Z,1016.14
2015-12-23T09:45:09.188Z,1016.06
2015-12-23T09:46:09.159Z,1016.15
2015-12-23T09:47:09.131Z,1016.15
2015-12-23T09:48:09.102Z,1016.18
2015-12-23T09:49:09.074Z,1016.15
2015-12-23T09:50:09.044Z,1016.18
2015-12-23T09:51:09.032Z,1016.19
2015-12-23T09:52:08.988Z,1016.24
2015-12-23T09:53:08.960Z,1016.11
2015-12-23T09:54:08.930Z,1016.19
2015-12-23T09:55:08.903Z,1016.21
2015-12-23T09:56:08.891Z,1016.15
2015-12-23T09:57:08.846Z,1016.19
2015-12-23T09:58:08.816Z,1016.24
2015-12-23T09:59:08.788Z,1016.23
2015-12-23T10:00:08.776Z,1016.24
2015-12-23T10:01:08.731Z,1016.28
2015-12-23T10:02:08.689Z,1016.33
2015-12-23T10:03:08.660Z,1016.29
2015-12-23T10:04:08.631Z,1016.28
2015-12-23T10:05:08.602Z,1016.21
2015-12-23T10:06:08.574Z,1016.19
2015-12-23T10:07:08.546Z,1016.22
2015-12-23T10:08:08.533Z,1016.25
2015-12-23T10:09:08.504Z,1016.17
2015-12-23T10:10:08.460Z,1016.12
2015-12-23T10:11:08.447Z,1016.19
2015-12-23T10:12:08.403Z,1016.24
2015-12-23T10:13:08.375Z,1016.25
2015-12-23T10:14:08.346Z,1016.28
2015-12-23T10:15:08.317Z,1016.19
2015-12-23T10:16:08.288Z,1016.14
2015-12-23T10:17:08.260Z,1016.17
2015-12-23T10:18:08.232Z,1016.25
2015-12-23T10:19:08.204Z,1016.34
2015-12-23T10:20:08.175Z,1016.32
2015-12-23T10:21:08.146Z,1016.23
2015-12-23T10:22:08.118Z,1016.26
2015-12-23T10:23:08.090Z,1016.3
2015-12-23T10:24:08.076Z,1016.34
2015-12-23T10:25:08.016Z,1016.33
2015-12-23T10:26:08.003Z,1016.37
2015-12-23T10:27:07.975Z,1016.38
2015-12-23T10:28:07.931Z,1016.39
2015-12-23T10:29:07.902Z,1016.42
2015-12-23T10:30:07.920Z,1016.37
2015-12-23T10:31:07.845Z,1016.43
2015-12-23T10:32:07.817Z,1016.43
2015-12-23T10:33:07.804Z,1016.46
2015-12-23T10:34:07.759Z,1016.48
2015-12-23T10:35:07.731Z,1016.52
2015-12-23T10:36:07.718Z,1016.49
2015-12-23T10:37:07.673Z,1016.47
2015-12-23T10:38:07.646Z,1016.45
2015-12-23T10:39:07.618Z,1016.51
2015-12-23T10:40:07.604Z,1016.58
2015-12-23T10:41:07.591Z,1016.59
2015-12-23T10:42:07.532Z,1016.56
2015-12-23T10:43:07.519Z,1016.63
2015-12-23T10:44:07.475Z,1016.57
2015-12-23T10:45:07.445Z,1016.63
2015-12-23T10:46:07.418Z,1016.58
2015-12-23T10:47:09.952Z,1016.64
2015-12-23T10:48:07.361Z,1016.63
2015-12-23T10:49:07.331Z,1016.61
2015-12-23T10:50:07.303Z,1016.65
2015-12-23T10:51:07.291Z,1016.66
2015-12-23T10:52:07.244Z,1016.67
2015-12-23T10:53:07.215Z,1016.63
2015-12-23T10:54:07.186Z,1016.69
2015-12-23T10:55:07.158Z,1016.67
2015-12-23T10:56:07.130Z,1016.66
2015-12-23T10:57:07.100Z,1016.66
2015-12-23T10:58:07.073Z,1016.73
2015-12-23T10:59:07.045Z,1016.69
2015-12-23T11:00:07.016Z,1016.74
2015-12-23T11:01:06.987Z,1016.75
2015-12-23T11:02:06.958Z,1016.7
2015-12-23T11:03:06.930Z,1016.73
2015-12-23T11:04:06.917Z,1016.78
2015-12-23T11:05:06.872Z,1016.72
2015-12-23T11:06:06.829Z,1016.77
2015-12-23T11:07:06.816Z,1016.82
2015-12-23T11:08:06.787Z,1016.85
2015-12-23T11:09:06.758Z,1016.88
2015-12-23T11:10:06.730Z,1016.89
2015-12-23T11:11:06.702Z,1016.89
2015-12-23T11:12:06.657Z,1016.92
2015-12-23T11:13:06.629Z,1016.93
2015-12-23T11:14:06.616Z,1016.94
2015-12-23T11:15:06.571Z,1017.01
2015-12-23T11:16:06.544Z,1017.03
2015-12-23T11:17:06.515Z,1017.01
2015-12-23T11:18:06.487Z,1017.04
2015-12-23T11:19:06.457Z,1017.04
2015-12-23T11:20:06.570Z,1017.07
2015-12-23T11:21:06.463Z,1017.09
2015-12-23T11:22:06.404Z,1017.08
2015-12-23T11:23:06.375Z,1017.07
2015-12-23T11:24:06.441Z,1017.11
2015-12-23T11:25:06.381Z,1017.14
2015-12-23T11:26:06.290Z,1017.08
2015-12-23T11:27:06.292Z,1017.14
2015-12-23T11:28:06.279Z,1017.16
2015-12-23T11:29:06.235Z,1017.07
2015-12-23T11:30:06.301Z,1017.12
2015-12-23T11:31:06.148Z,1017.11
2015-12-23T11:32:06.165Z,1017.08
2015-12-23T11:33:06.121Z,1017.14
2015-12-23T11:34:06.077Z,1017.09
2015-12-23T11:35:06.127Z,1017.12
2015-12-23T11:36:06.020Z,1017.14
2015-12-23T11:37:05.960Z,1017.16
2015-12-23T11:38:08.978Z,1017.22
2015-12-23T11:39:05.951Z,1017.25
2015-12-23T11:40:05.968Z,1017.24
2015-12-23T11:41:05.878Z,1017.2
2015-12-23T11:42:05.849Z,1017.18
2015-12-23T11:43:06.039Z,1017.1
2015-12-23T11:44:05.870Z,1017.15
2015-12-23T11:45:05.826Z,1017.14
2015-12-23T11:46:05.782Z,1017.19
2015-12-23T11:47:05.738Z,1017.12
2015-12-23T11:48:05.694Z,1017.15
2015-12-23T11:49:08.634Z,1017.24
2015-12-23T11:50:05.637Z,1017.19
2015-12-23T11:51:05.593Z,1017.25
2015-12-23T11:52:05.515Z,1017.26
2015-12-23T11:53:05.533Z,1017.33
2015-12-23T11:54:05.536Z,1017.22
2015-12-23T11:55:05.553Z,1017.28
2015-12-23T11:56:05.463Z,1017.28
2015-12-23T11:57:05.434Z,1017.29
2015-12-23T11:58:05.390Z,1017.22
2015-12-23T11:59:05.361Z,1017.25
2015-12-23T12:00:05.567Z,1017.31
2015-12-23T12:01:05.305Z,1017.2
2015-12-23T12:02:05.307Z,1017.31
2015-12-23T12:03:05.263Z,1017.31
2015-12-23T12:04:05.203Z,1017.33
2015-12-23T12:05:05.252Z,1017.32
2015-12-23T12:06:05.241Z,1017.3
2015-12-23T12:07:05.118Z,1017.3
2015-12-23T12:08:05.121Z,1017.26
2015-12-23T12:09:05.060Z,1017.23
2015-12-23T12:10:05.110Z,1017.25
2015-12-23T12:11:05.035Z,1017.27